Time;durP1;ratioP1;P1;durP2;ratioP2;P2;SDS_P1;SDS_P2;PMS_P1;PMS_P2;Temp;Humidity;BMP_temperature;BMP_pressure;BME280_temperature;BME280_humidity;BME280_pressure;Samples;Min_cycle;Max_cycle;Signal;HPM_P1;HPM_P2
2022/09/05 00:00:19;;;;;;;2.85;2.30;;;;;15.90;94631.00;;;;7395353;19;20152;-74
2022/09/05 00:03:23;;;;;;;2.35;2.15;;;;;15.90;94636.00;;;;7395597;19;20209;-74
2022/09/05 00:06:07;;;;;;;5.57;2.45;;;;;15.80;94626.00;;;;7392959;19;20145;-72
2022/09/05 00:09:03;;;;;;;2.22;2.00;;;;;15.80;94621.00;;;;7396588;19;20610;-75
2022/09/05 00:11:52;;;;;;;1.95;1.70;;;;;15.70;94624.00;;;;7398165;19;20153;-75
2022/09/05 00:14:36;;;;;;;4.07;2.10;;;;;15.70;94621.00;;;;7396728;19;20153;-75
2022/09/05 00:17:49;;;;;;;4.15;2.28;;;;;15.60;94620.00;;;;7396875;19;20148;-75
2022/09/05 00:21:00;;;;;;;2.72;2.20;;;;;15.70;94623.00;;;;7394810;19;20631;-75
2022/09/05 00:23:54;;;;;;;2.65;2.33;;;;;16.00;94613.00;;;;7398407;19;20236;-75
2022/09/05 00:27:37;;;;;;;4.53;2.25;;;;;15.90;94619.00;;;;7396927;19;20148;-75
2022/09/05 00:30:17;;;;;;;2.33;2.13;;;;;15.70;94618.00;;;;7394864;19;20598;-75
2022/09/05 00:33:30;;;;;;;4.05;2.08;;;;;15.80;94612.00;;;;7395908;19;20521;-76
2022/09/05 00:36:42;;;;;;;2.58;2.33;;;;;15.90;94616.00;;;;7395396;19;20156;-75
2022/09/05 00:39:23;;;;;;;2.78;2.25;;;;;16.00;94613.00;;;;7393592;19;20160;-76
2022/09/05 00:41:54;;;;;;;3.13;2.30;;;;;16.20;94618.00;;;;7394106;19;20136;-75
2022/09/05 00:44:32;;;;;;;3.38;2.00;;;;;16.60;94609.00;;;;7396136;19;20153;-74
2022/09/05 00:47:35;;;;;;;3.38;2.17;;;;;17.00;94607.00;;;;7393826;19;20491;-75
2022/09/05 00:50:37;;;;;;;3.17;2.17;;;;;17.40;94603.00;;;;7391345;19;20626;-75
2022/09/05 00:53:45;;;;;;;4.72;2.25;;;;;17.30;94599.00;;;;7394974;19;20144;-75
2022/09/05 00:56:33;;;;;;;3.90;2.13;;;;;17.20;94604.00;;;;7393876;19;20161;-74
2022/09/05 00:59:38;;;;;;;2.58;2.03;;;;;17.10;94611.00;;;;7394115;19;20148;-75
2022/09/05 01:02:37;;;;;;;2.15;1.90;;;;;17.10;94602.00;;;;7395842;19;20185;-75
2022/09/05 01:05:35;;;;;;;2.70;2.13;;;;;17.00;94594.00;;;;7392676;19;20113;-76
2022/09/05 01:08:50;;;;;;;2.70;1.80;;;;;17.00;94590.00;;;;7395769;19;20133;-75
2022/09/05 01:11:48;;;;;;;3.25;2.05;;;;;16.90;94590.00;;;;7394596;19;20600;-75
2022/09/05 01:14:48;;;;;;;2.75;2.15;;;;;16.80;94583.00;;;;7393571;19;20167;-76
2022/09/05 01:17:16;;;;;;;6.18;2.20;;;;;16.90;94587.00;;;;7394734;19;20153;-74
2022/09/05 01:20:27;;;;;;;2.33;1.90;;;;;17.10;94584.00;;;;7393438;19;20499;-74
2022/09/05 01:23:33;;;;;;;4.30;2.13;;;;;17.20;94586.00;;;;7392955;19;20228;-74
2022/09/05 01:26:49;;;;;;;4.00;1.98;;;;;17.40;94580.00;;;;7390657;19;20248;-74
2022/09/05 01:29:49;;;;;;;2.20;1.45;;;;;17.40;94584.00;;;;7395563;19;20143;-75
2022/09/05 01:32:50;;;;;;;2.72;2.15;;;;;17.60;94590.00;;;;7391358;19;20500;-75
2022/09/05 01:35:41;;;;;;;2.97;1.95;;;;;17.60;94591.00;;;;7394690;19;20161;-76
2022/09/05 01:38:52;;;;;;;6.10;2.08;;;;;17.50;94588.00;;;;7393006;19;20131;-74
2022/09/05 01:42:10;;;;;;;3.00;2.08;;;;;17.30;94589.00;;;;7395232;19;20492;-74
2022/09/05 01:45:09;;;;;;;2.22;1.90;;;;;17.10;94592.00;;;;7395197;19;20155;-74
2022/09/05 01:47:45;;;;;;;2.63;2.28;;;;;16.90;94583.00;;;;7393859;19;20141;-75
2022/09/05 01:50:52;;;;;;;2.78;2.00;;;;;16.70;94588.00;;;;7393997;19;20156;-74
2022/09/05 01:53:44;;;;;;;2.83;2.20;;;;;16.40;94598.00;;;;7393739;19;20149;-72
2022/09/05 01:56:18;;;;;;;4.15;2.03;;;;;16.30;94587.00;;;;7392647;19;20223;-73
2022/09/05 01:58:50;;;;;;;3.97;2.10;;;;;16.20;94587.00;;;;7392096;19;20153;-73
2022/09/05 02:01:43;;;;;;;2.85;2.13;;;;;16.10;94587.00;;;;7392681;19;20139;-73
2022/09/05 02:04:16;;;;;;;2.78;1.98;;;;;16.00;94594.00;;;;7391218;19;20587;-75
2022/09/05 02:07:20;;;;;;;3.80;2.30;;;;;16.00;94588.00;;;;7391862;19;20152;-74
2022/09/05 02:10:16;;;;;;;2.17;1.88;;;;;16.20;94594.00;;;;7390240;19;20506;-74
2022/09/05 02:13:09;;;;;;;2.60;2.08;;;;;16.20;94589.00;;;;7392329;19;20204;-74
2022/09/05 02:15:43;;;;;;;2.67;2.20;;;;;16.10;94593.00;;;;7393936;19;20137;-75
2022/09/05 02:18:51;;;;;;;2.88;2.22;;;;;16.10;94593.00;;;;7393189;19;20539;-74
2022/09/05 02:21:37;;;;;;;2.00;1.80;;;;;16.00;94595.00;;;;7393739;19;20161;-74
2022/09/05 02:24:39;;;;;;;4.07;2.10;;;;;16.10;94594.00;;;;7390242;19;20220;-74
2022/09/05 02:27:40;;;;;;;3.25;2.15;;;;;16.00;94598.00;;;;7389290;19;20173;-75
2022/09/05 02:30:48;;;;;;;3.92;2.30;;;;;16.10;94581.00;;;;7389629;19;20136;-74
2022/09/05 02:33:46;;;;;;;2.90;2.22;;;;;16.10;94586.00;;;;7393280;19;20140;-75
2022/09/05 02:36:37;;;;;;;2.00;1.77;;;;;16.00;94592.00;;;;7390016;19;20646;-73
2022/09/05 02:39:39;;;;;;;2.38;2.00;;;;;16.00;94589.00;;;;7391153;19;20673;-75
2022/09/05 02:42:56;;;;;;;2.45;2.20;;;;;16.00;94589.00;;;;7390459;19;20615;-74
2022/09/05 02:46:13;;;;;;;2.58;2.00;;;;;16.10;94587.00;;;;7392661;19;20207;-73
2022/09/05 02:49:04;;;;;;;1.88;1.77;;;;;16.10;94583.00;;;;7390863;19;20604;-73
2022/09/05 02:52:06;;;;;;;2.30;2.10;;;;;16.00;94588.00;;;;7388148;19;20607;-73
2022/09/05 02:55:05;;;;;;;2.38;2.10;;;;;15.90;94581.00;;;;7391575;19;20624;-73
2022/09/05 02:58:16;;;;;;;3.50;2.00;;;;;16.00;94584.00;;;;7393134;19;20125;-74
2022/09/05 03:01:23;;;;;;;2.92;2.38;;;;;16.10;94584.00;;;;7391374;19;20607;-73
2022/09/05 03:03:56;;;;;;;2.22;2.03;;;;;16.10;94577.00;;;;7388216;19;20635;-73
2022/09/05 03:06:58;;;;;;;3.03;2.38;;;;;16.20;94573.00;;;;7392817;19;20132;-73
2022/09/05 03:09:51;;;;;;;2.55;2.10;;;;;16.30;94567.00;;;;7390635;19;20615;-73
2022/09/05 03:12:57;;;;;;;4.03;2.03;;;;;16.30;94576.00;;;;7394631;19;20162;-73
2022/09/05 03:15:49;;;;;;;2.53;2.30;;;;;16.30;94568.00;;;;7396759;19;20623;-73
2022/09/05 03:19:11;;;;;;;2.08;1.98;;;;;16.30;94567.00;;;;7396681;19;20186;-73
2022/09/05 03:21:50;;;;;;;3.45;2.20;;;;;16.10;94568.00;;;;7400159;19;20208;-74
2022/09/05 03:25:02;;;;;;;3.95;2.40;;;;;16.20;94565.00;;;;7395482;19;20144;-73
2022/09/05 03:28:02;;;;;;;3.75;2.28;;;;;16.40;94577.00;;;;7398219;19;20152;-75
2022/09/05 03:30:39;;;;;;;4.60;1.90;;;;;16.50;94569.00;;;;7397186;19;20160;-74
2022/09/05 03:33:32;;;;;;;2.45;2.25;;;;;16.70;94565.00;;;;7399882;19;20200;-74
2022/09/05 03:36:11;;;;;;;2.65;2.10;;;;;16.70;94556.00;;;;7398292;19;20186;-75
2022/09/05 03:39:07;;;;;;;2.67;2.20;;;;;16.60;94565.00;;;;7398382;19;20226;-75
2022/09/05 03:42:07;;;;;;;3.97;2.08;;;;;16.80;94568.00;;;;7398286;19;20172;-74
2022/09/05 03:44:47;;;;;;;2.40;2.20;;;;;16.80;94566.00;;;;7398415;19;20144;-75
2022/09/05 03:47:36;;;;;;;1.90;1.80;;;;;16.70;94562.00;;;;7397314;19;20244;-75
2022/09/05 03:50:04;;;;;;;2.30;2.10;;;;;16.60;94564.00;;;;7395944;19;20595;-75
2022/09/05 03:53:29;;;;;;;3.20;2.25;;;;;16.70;94557.00;;;;7398293;19;20133;-74
2022/09/05 03:56:38;;;;;;;2.92;2.13;;;;;16.50;94564.00;;;;7394736;19;20143;-73
2022/09/05 03:59:57;;;;;;;2.22;2.03;;;;;16.50;94563.00;;;;7399158;19;20133;-74
2022/09/05 04:02:29;;;;;;;6.07;2.22;;;;;16.50;94567.00;;;;7395248;19;20594;-74
2022/09/05 04:05:51;;;;;;;4.07;2.38;;;;;16.30;94559.00;;;;7393922;19;20156;-74
2022/09/05 04:09:06;;;;;;;2.65;2.30;;;;;16.20;94554.00;;;;7393586;19;20141;-75
2022/09/05 04:12:15;;;;;;;2.53;2.00;;;;;16.30;94554.00;;;;7397545;19;20542;-75
2022/09/05 04:15:12;;;;;;;2.30;2.10;;;;;16.40;94559.00;;;;7398320;19;20163;-75
2022/09/05 04:17:58;;;;;;;3.72;2.25;;;;;16.60;94559.00;;;;7395357;19;20148;-76
2022/09/05 04:20:46;;;;;;;2.03;1.90;;;;;16.90;94558.00;;;;7393437;19;20172;-74
2022/09/05 04:23:48;;;;;;;2.60;2.10;;;;;16.80;94559.00;;;;7396046;19;20139;-74
2022/09/05 04:26:47;;;;;;;5.80;1.98;;;;;16.70;94554.00;;;;7391418;19;20192;-75
2022/09/05 04:29:36;;;;;;;5.43;2.20;;;;;16.80;94559.00;;;;7393838;19;20137;-73
2022/09/05 04:32:56;;;;;;;4.63;2.10;;;;;16.80;94557.00;;;;7395438;19;20140;-73
2022/09/05 04:35:36;;;;;;;2.00;1.85;;;;;16.90;94560.00;;;;7394830;19;20615;-74
2022/09/05 04:38:35;;;;;;;2.08;1.80;;;;;17.20;94569.00;;;;7393513;19;20180;-75
2022/09/05 04:41:13;;;;;;;2.30;1.75;;;;;17.30;94566.00;;;;7395536;19;20228;-74
2022/09/05 04:43:48;;;;;;;3.30;2.22;;;;;17.30;94563.00;;;;7395609;19;20507;-75
2022/09/05 04:46:32;;;;;;;2.65;2.10;;;;;17.20;94569.00;;;;7392440;19;20179;-76
2022/09/05 04:49:32;;;;;;;4.80;2.10;;;;;17.10;94570.00;;;;7394609;19;20149;-74
2022/09/05 04:52:10;;;;;;;3.58;2.10;;;;;17.20;94566.00;;;;7395413;19;20160;-76
2022/09/05 04:55:00;;;;;;;2.45;2.00;;;;;17.60;94570.00;;;;7394865;19;20505;-74
2022/09/05 04:57:47;;;;;;;6.38;1.88;;;;;17.60;94568.00;;;;7396249;19;20182;-75
2022/09/05 05:00:38;;;;;;;4.35;2.33;;;;;17.60;94567.00;;;;7394884;19;20144;-74
2022/09/05 05:03:36;;;;;;;3.15;2.08;;;;;17.50;94571.00;;;;7395233;19;20173;-74
2022/09/05 05:06:48;;;;;;;2.40;2.20;;;;;17.50;94581.00;;;;7393095;19;20256;-75
2022/09/05 05:09:46;;;;;;;3.38;2.20;;;;;17.70;94575.00;;;;7394346;19;20504;-75
2022/09/05 05:12:21;;;;;;;3.10;1.90;;;;;17.70;94580.00;;;;7393543;19;20163;-72
2022/09/05 05:15:20;;;;;;;2.58;2.05;;;;;17.80;94575.00;;;;7389173;19;20194;-75
2022/09/05 05:18:25;;;;;;;2.47;1.80;;;;;17.80;94582.00;;;;7396776;19;20120;-74
2022/09/05 05:21:23;;;;;;;5.38;2.20;;;;;17.80;94578.00;;;;7394869;19;20236;-73
2022/09/05 05:24:19;;;;;;;4.40;1.70;;;;;17.80;94587.00;;;;7394522;19;20172;-73
2022/09/05 05:27:24;;;;;;;5.35;2.35;;;;;17.60;94586.00;;;;7390358;19;20160;-72
2022/09/05 05:30:09;;;;;;;4.75;1.85;;;;;17.50;94590.00;;;;7394526;19;20129;-73
2022/09/05 05:32:51;;;;;;;2.95;1.98;;;;;17.60;94590.00;;;;7394132;19;20156;-74
2022/09/05 05:35:28;;;;;;;2.20;2.00;;;;;17.60;94594.00;;;;7393917;19;20139;-73
2022/09/05 05:38:38;;;;;;;3.65;2.33;;;;;17.80;94594.00;;;;7394450;19;20129;-73
2022/09/05 05:41:36;;;;;;;2.70;1.88;;;;;18.00;94604.00;;;;7394109;19;20140;-73
2022/09/05 05:44:25;;;;;;;3.13;2.15;;;;;18.00;94603.00;;;;7392514;19;20132;-74
2022/09/05 05:47:02;;;;;;;3.13;1.92;;;;;18.00;94602.00;;;;7391197;19;20216;-73
2022/09/05 05:49:45;;;;;;;2.20;2.00;;;;;18.10;94607.00;;;;7391988;19;20509;-74
2022/09/05 05:52:43;;;;;;;4.25;1.98;;;;;18.20;94603.00;;;;7392141;19;20163;-74
2022/09/05 05:55:41;;;;;;;2.17;1.98;;;;;18.40;94604.00;;;;7393444;19;20928;-73
2022/09/05 05:58:42;;;;;;;1.83;1.73;;;;;18.40;94605.00;;;;7392687;19;20148;-74
2022/09/05 06:02:00;;;;;;;2.20;1.88;;;;;18.50;94610.00;;;;7391416;19;20164;-75
2022/09/05 06:05:12;;;;;;;3.17;2.08;;;;;18.50;94607.00;;;;7391303;19;20184;-72
2022/09/05 06:08:01;;;;;;;2.38;2.15;;;;;18.60;94616.00;;;;7394521;19;20141;-73
2022/09/05 06:11:32;;;;;;;3.22;2.03;;;;;18.60;94611.00;;;;7390750;19;20224;-75
2022/09/05 06:15:02;;;;;;;2.53;1.73;;;;;18.80;94610.00;;;;7391505;19;20156;-74
2022/09/05 06:18:07;;;;;;;2.40;2.10;;;;;19.00;94615.00;;;;7394632;19;20586;-74
2022/09/05 06:20:51;;;;;;;2.78;1.83;;;;;19.10;94611.00;;;;7391537;19;20563;-75
2022/09/05 06:24:07;;;;;;;2.00;1.90;;;;;19.20;94619.00;;;;7392606;19;20548;-77
2022/09/05 06:27:12;;;;;;;4.15;2.00;;;;;19.30;94614.00;;;;7388406;19;20153;-76
2022/09/05 06:30:06;;;;;;;4.07;1.90;;;;;19.30;94613.00;;;;7390567;19;20153;-74
2022/09/05 06:33:18;;;;;;;4.15;2.15;;;;;19.30;94619.00;;;;7390829;19;20140;-75
2022/09/05 06:35:56;;;;;;;2.53;2.10;;;;;19.30;94618.00;;;;7393367;19;20156;-73
2022/09/05 06:39:05;;;;;;;4.78;2.25;;;;;19.30;94619.00;;;;7390317;19;20145;-75
2022/09/05 06:41:57;;;;;;;4.35;2.30;;;;;19.50;94621.00;;;;7394675;19;20218;-74
2022/09/05 06:44:46;;;;;;;1.90;1.80;;;;;19.80;94617.00;;;;7391267;19;20153;-74
2022/09/05 06:47:18;;;;;;;5.53;2.10;;;;;20.10;94619.00;;;;7397945;19;20475;-74
2022/09/05 06:50:11;;;;;;;4.18;2.03;;;;;20.40;94608.00;;;;7398210;19;20145;-74
2022/09/05 06:53:14;;;;;;;2.05;1.63;;;;;20.90;94608.00;;;;7399250;19;20196;-74
2022/09/05 06:55:58;;;;;;;2.72;2.10;;;;;21.20;94604.00;;;;7400932;19;20136;-74
2022/09/05 06:58:47;;;;;;;3.25;1.90;;;;;21.40;94611.00;;;;7395509;19;20172;-73
2022/09/05 07:01:30;;;;;;;5.07;2.35;;;;;21.50;94614.00;;;;7398960;19;20176;-74
2022/09/05 07:04:30;;;;;;;2.20;2.00;;;;;21.70;94613.00;;;;7396253;19;20181;-76
2022/09/05 07:07:53;;;;;;;2.33;2.13;;;;;21.90;94618.00;;;;7400007;19;20144;-75
2022/09/05 07:10:28;;;;;;;2.60;2.13;;;;;22.00;94620.00;;;;7394643;19;20180;-75
2022/09/05 07:13:28;;;;;;;2.35;2.00;;;;;22.10;94620.00;;;;7399484;19;20604;-75
2022/09/05 07:16:20;;;;;;;5.20;1.90;;;;;22.20;94620.00;;;;7400810;19;20161;-74
2022/09/05 07:19:44;;;;;;;3.95;2.10;;;;;22.30;94618.00;;;;7400556;19;20220;-73
2022/09/05 07:22:34;;;;;;;2.67;1.77;;;;;22.60;94624.00;;;;7399460;19;20132;-75
2022/09/05 07:25:34;;;;;;;2.65;1.90;;;;;22.70;94625.00;;;;7397647;19;20160;-76
2022/09/05 07:28:13;;;;;;;4.72;2.15;;;;;23.00;94619.00;;;;7397835;19;20166;-75
2022/09/05 07:31:05;;;;;;;3.22;1.63;;;;;23.10;94617.00;;;;7395620;19;20871;-75
2022/09/05 07:33:38;;;;;;;2.53;1.88;;;;;23.20;94624.00;;;;7398266;19;20128;-76
2022/09/05 07:36:36;;;;;;;2.90;1.90;;;;;23.40;94621.00;;;;7396344;19;20163;-74
2022/09/05 07:39:04;;;;;;;1.98;1.77;;;;;23.60;94624.00;;;;7398233;19;20144;-74
2022/09/05 07:42:01;;;;;;;3.03;1.77;;;;;23.70;94619.00;;;;7399606;19;20133;-75
2022/09/05 07:44:33;;;;;;;2.30;1.73;;;;;23.70;94626.00;;;;7397853;19;20137;-74
2022/09/05 07:47:23;;;;;;;1.95;1.85;;;;;23.80;94621.00;;;;7399366;19;20160;-74
2022/09/05 07:49:52;;;;;;;2.75;1.80;;;;;24.00;94625.00;;;;7396646;19;20261;-75
2022/09/05 07:52:50;;;;;;;4.10;1.95;;;;;24.30;94625.00;;;;7397045;19;20140;-75
2022/09/05 07:55:40;;;;;;;2.17;1.75;;;;;24.40;94625.00;;;;7399246;19;20129;-75
2022/09/05 07:58:48;;;;;;;2.33;1.70;;;;;24.30;94622.00;;;;7394468;19;20141;-77
2022/09/05 08:01:19;;;;;;;3.80;1.90;;;;;24.40;94618.00;;;;7397846;19;20497;-75
2022/09/05 08:03:57;;;;;;;6.15;1.88;;;;;24.50;94622.00;;;;7395547;19;20171;-74
2022/09/05 08:06:32;;;;;;;2.50;1.80;;;;;24.50;94620.00;;;;7395443;19;20152;-74
2022/09/05 08:09:33;;;;;;;3.95;1.75;;;;;24.80;94623.00;;;;7397370;19;20471;-75
2022/09/05 08:12:25;;;;;;;3.25;1.75;;;;;24.80;94623.00;;;;7395466;19;20599;-76
2022/09/05 08:15:27;;;;;;;2.22;1.90;;;;;24.70;94622.00;;;;7397843;19;20512;-75
2022/09/05 08:18:48;;;;;;;1.80;1.63;;;;;24.70;94626.00;;;;7397103;19;20140;-74
2022/09/05 08:21:45;;;;;;;3.22;2.08;;;;;25.10;94625.00;;;;7397737;19;20627;-74
2022/09/05 08:24:28;;;;;;;2.30;1.63;;;;;25.20;94622.00;;;;7394242;19;20611;-74
2022/09/05 08:27:17;;;;;;;2.05;1.85;;;;;25.50;94623.00;;;;7396670;19;20598;-76
2022/09/05 08:29:52;;;;;;;3.42;2.10;;;;;25.70;94625.00;;;;7395121;19;20492;-75
2022/09/05 08:32:56;;;;;;;2.10;1.70;;;;;25.90;94631.00;;;;7396083;19;20147;-75
2022/09/05 08:35:43;;;;;;;4.97;2.13;;;;;26.00;94628.00;;;;7398732;19;20588;-75
2022/09/05 08:38:24;;;;;;;5.95;1.70;;;;;26.20;94631.00;;;;7396286;19;20148;-75
2022/09/05 08:41:15;;;;;;;1.95;1.85;;;;;26.00;94630.00;;;;7394398;19;20156;-75
2022/09/05 08:44:20;;;;;;;2.88;2.00;;;;;26.10;94622.00;;;;7394663;19;20642;-75
2022/09/05 08:47:18;;;;;;;3.33;1.77;;;;;26.40;94629.00;;;;7397223;19;20144;-76
2022/09/05 08:50:04;;;;;;;2.92;1.63;;;;;26.60;94635.00;;;;7395352;19;20515;-78
2022/09/05 08:53:02;;;;;;;2.22;1.90;;;;;26.80;94634.00;;;;7393803;19;20156;-75
2022/09/05 08:56:17;;;;;;;2.03;1.90;;;;;27.10;94634.00;;;;7393631;19;20525;-77
2022/09/05 08:59:07;;;;;;;3.58;1.92;;;;;27.20;94633.00;;;;7395511;19;20682;-76
2022/09/05 09:02:36;;;;;;;3.75;1.80;;;;;27.40;94629.00;;;;7395901;19;20137;-76
2022/09/05 09:05:29;;;;;;;4.35;1.77;;;;;27.40;94630.00;;;;7394299;19;20148;-75
2022/09/05 09:08:43;;;;;;;2.30;2.10;;;;;27.50;94623.00;;;;7394122;19;20159;-77
2022/09/05 09:11:33;;;;;;;3.75;2.10;;;;;27.70;94628.00;;;;7392949;19;20472;-74
2022/09/05 09:14:38;;;;;;;5.95;2.25;;;;;27.80;94624.00;;;;7395604;19;20653;-73
2022/09/05 09:17:16;;;;;;;2.35;1.98;;;;;27.40;94623.00;;;;7395978;19;20205;-76
2022/09/05 09:20:14;;;;;;;2.45;1.90;;;;;27.50;94624.00;;;;7395588;19;20624;-74
2022/09/05 09:23:20;;;;;;;2.17;1.70;;;;;27.80;94627.00;;;;7395681;19;20177;-74
2022/09/05 09:26:12;;;;;;;2.30;2.10;;;;;28.20;94625.00;;;;7391296;19;20176;-75
2022/09/05 09:29:01;;;;;;;3.28;2.10;;;;;28.60;94630.00;;;;7393367;19;20149;-74
2022/09/05 09:31:47;;;;;;;2.20;2.00;;;;;28.40;94646.00;;;;7394023;19;20618;-75
2022/09/05 09:34:22;;;;;;;2.20;2.00;;;;;27.00;94649.00;;;;7391833;19;20156;-76
2022/09/05 09:37:20;;;;;;;2.83;2.10;;;;;26.20;94655.00;;;;7393561;19;20140;-75
2022/09/05 09:40:23;;;;;;;2.55;2.00;;;;;25.20;94668.00;;;;7395085;19;20140;-74
2022/09/05 09:43:17;;;;;;;3.08;2.13;;;;;25.50;94661.00;;;;7394520;19;20140;-74
2022/09/05 09:46:00;;;;;;;3.85;2.20;;;;;25.90;94642.00;;;;7395363;19;20125;-75
2022/09/05 09:49:06;;;;;;;2.13;1.92;;;;;25.70;94650.00;;;;7393265;19;20615;-75
2022/09/05 09:52:01;;;;;;;4.07;2.08;;;;;25.90;94641.00;;;;7393148;19;20583;-75
2022/09/05 09:54:47;;;;;;;2.05;1.88;;;;;25.60;94657.00;;;;7392149;19;20626;-75
2022/09/05 09:57:43;;;;;;;2.35;2.15;;;;;24.90;94657.00;;;;7392779;19;20181;-73
2022/09/05 10:00:21;;;;;;;2.58;1.92;;;;;24.40;94660.00;;;;7389609;19;20171;-75
2022/09/05 10:03:29;;;;;;;4.43;2.20;;;;;23.70;94662.00;;;;7391911;19;20203;-76
2022/09/05 10:06:42;;;;;;;3.10;2.25;;;;;23.30;94664.00;;;;7390735;19;20958;-73
2022/09/05 10:10:07;;;;;;;4.82;2.40;;;;;24.10;94640.00;;;;7392027;19;20244;-73
2022/09/05 10:13:45;;;;;;;2.25;1.80;;;;;25.60;94634.00;;;;7391712;19;20154;-74
2022/09/05 10:16:36;;;;;;;2.30;2.10;;;;;26.70;94618.00;;;;7391474;19;20152;-75
2022/09/05 10:19:28;;;;;;;2.08;1.88;;;;;27.10;94619.00;;;;7389865;19;20166;-74
2022/09/05 10:22:34;;;;;;;2.85;1.90;;;;;27.50;94619.00;;;;7390741;19;20147;-73
2022/09/05 10:25:34;;;;;;;2.90;1.90;;;;;28.10;94606.00;;;;7392058;19;20160;-75
2022/09/05 10:29:00;;;;;;;2.40;2.20;;;;;28.30;94607.00;;;;7390329;19;20163;-74
2022/09/05 10:32:07;;;;;;;2.95;1.95;;;;;28.20;94601.00;;;;7390213;19;20144;-74
2022/09/05 10:35:16;;;;;;;1.80;1.70;;;;;28.60;94594.00;;;;7392241;19;20133;-73
2022/09/05 10:38:10;;;;;;;4.05;2.17;;;;;29.00;94594.00;;;;7391180;19;20219;-75
2022/09/05 10:40:42;;;;;;;3.15;2.22;;;;;29.10;94599.00;;;;7393873;19;20596;-73
2022/09/05 10:43:56;;;;;;;5.32;1.90;;;;;29.20;94599.00;;;;7387416;19;20490;-75
2022/09/05 10:46:44;;;;;;;2.33;2.10;;;;;28.50;94599.00;;;;7390287;19;20165;-74
2022/09/05 10:49:33;;;;;;;1.90;1.80;;;;;28.10;94593.00;;;;7392862;19;20133;-75
2022/09/05 10:52:28;;;;;;;2.38;2.17;;;;;27.90;94616.00;;;;7392365;19;20153;-73
2022/09/05 10:55:24;;;;;;;2.10;1.90;;;;;27.30;94607.00;;;;7390345;19;20156;-74
2022/09/05 10:58:04;;;;;;;3.72;2.13;;;;;28.10;94599.00;;;;7389566;19;20543;-74
2022/09/05 11:00:55;;;;;;;2.85;2.42;;;;;28.30;94607.00;;;;7389606;19;20154;-74
2022/09/05 11:04:03;;;;;;;4.38;2.17;;;;;29.00;94593.00;;;;7387864;19;20654;-73
2022/09/05 11:07:07;;;;;;;3.20;2.20;;;;;28.30;94621.00;;;;7390773;19;20133;-73
2022/09/05 11:10:01;;;;;;;2.78;2.08;;;;;26.80;94620.00;;;;7392716;19;20128;-72
2022/09/05 11:13:00;;;;;;;2.72;2.20;;;;;25.70;94618.00;;;;7389449;19;20133;-75
2022/09/05 11:15:49;;;;;;;5.80;2.38;;;;;26.20;94608.00;;;;7391644;19;20653;-72
2022/09/05 11:18:56;;;;;;;2.30;2.10;;;;;26.60;94622.00;;;;7388404;19;20141;-74
2022/09/05 11:21:44;;;;;;;2.45;2.00;;;;;26.10;94616.00;;;;7389584;19;20623;-75
2022/09/05 11:24:59;;;;;;;4.00;2.30;;;;;25.90;94613.00;;;;7390708;19;20157;-74
2022/09/05 11:27:50;;;;;;;3.17;2.17;;;;;25.80;94628.00;;;;7387856;19;20153;-73
2022/09/05 11:30:29;;;;;;;2.40;2.20;;;;;25.70;94622.00;;;;7390353;19;20137;-72
2022/09/05 11:33:14;;;;;;;3.33;2.20;;;;;25.50;94615.00;;;;7390642;19;20167;-76
2022/09/05 11:36:23;;;;;;;2.40;2.20;;;;;25.50;94625.00;;;;7398272;19;20646;-75
2022/09/05 11:39:34;;;;;;;3.35;2.20;;;;;26.10;94599.00;;;;7396264;19;20630;-75
2022/09/05 11:42:46;;;;;;;4.20;2.30;;;;;27.70;94591.00;;;;7391517;19;20151;-73
2022/09/05 11:45:46;;;;;;;3.58;2.53;;;;;28.40;94585.00;;;;7393409;19;20489;-75
2022/09/05 11:48:40;;;;;;;4.22;2.60;;;;;29.30;94582.00;;;;7390816;19;20625;-76
2022/09/05 11:51:40;;;;;;;2.90;2.20;;;;;29.20;94583.00;;;;7389340;19;20149;-75
2022/09/05 11:54:29;;;;;;;4.28;2.60;;;;;29.30;94592.00;;;;7389893;19;20161;-76
2022/09/05 11:57:22;;;;;;;2.45;2.25;;;;;28.40;94604.00;;;;7391607;19;20160;-74
2022/09/05 12:00:22;;;;;;;4.15;2.25;;;;;27.60;94602.00;;;;7394104;19;20136;-74
2022/09/05 12:03:37;;;;;;;5.70;2.15;;;;;27.10;94609.00;;;;7388355;19;20180;-74
2022/09/05 12:06:38;;;;;;;2.50;2.30;;;;;26.50;94603.00;;;;7389721;19;20144;-75
2022/09/05 12:10:00;;;;;;;2.78;2.38;;;;;26.00;94596.00;;;;7392874;19;20133;-76
2022/09/05 12:12:37;;;;;;;4.38;2.10;;;;;25.90;94594.00;;;;7391910;19;20157;-75
2022/09/05 12:15:32;;;;;;;2.85;2.15;;;;;25.50;94599.00;;;;7391323;19;20163;-76
2022/09/05 12:18:43;;;;;;;2.28;2.10;;;;;25.90;94596.00;;;;7390101;19;20148;-75
2022/09/05 12:21:23;;;;;;;5.40;2.10;;;;;25.70;94593.00;;;;7391259;19;20159;-75
2022/09/05 12:24:17;;;;;;;4.30;2.55;;;;;25.40;94587.00;;;;7391456;19;20604;-74
2022/09/05 12:27:15;;;;;;;2.78;2.20;;;;;25.10;94593.00;;;;7389754;19;20175;-74
2022/09/05 12:30:20;;;;;;;3.13;2.22;;;;;25.30;94583.00;;;;7391977;19;20607;-74
2022/09/05 12:33:19;;;;;;;4.30;2.17;;;;;25.00;94575.00;;;;7389659;19;20156;-75
2022/09/05 12:36:30;;;;;;;2.72;2.10;;;;;25.00;94578.00;;;;7387300;19;20636;-75
2022/09/05 12:39:45;;;;;;;2.60;2.40;;;;;25.10;94578.00;;;;7390214;19;20618;-74
2022/09/05 12:42:52;;;;;;;3.22;2.22;;;;;26.70;94557.00;;;;7388642;19;20163;-73
2022/09/05 12:46:14;;;;;;;3.10;2.10;;;;;27.50;94550.00;;;;7393471;19;20156;-73
2022/09/05 12:49:06;;;;;;;2.33;2.13;;;;;27.70;94563.00;;;;7393070;19;20175;-74
2022/09/05 12:51:41;;;;;;;2.78;2.40;;;;;27.00;94553.00;;;;7393965;19;20148;-73
2022/09/05 12:54:53;;;;;;;2.13;2.03;;;;;27.10;94559.00;;;;7394551;19;20140;-75
2022/09/05 12:57:28;;;;;;;2.55;1.90;;;;;27.90;94544.00;;;;7394648;19;20155;-74
2022/09/05 13:00:25;;;;;;;2.40;2.20;;;;;28.50;94531.00;;;;7393616;19;20204;-74
2022/09/05 13:03:22;;;;;;;2.67;2.13;;;;;29.00;94535.00;;;;7390975;19;20152;-74
2022/09/05 13:06:09;;;;;;;3.40;2.20;;;;;29.20;94536.00;;;;7394461;19;20133;-73
2022/09/05 13:09:01;;;;;;;4.00;2.35;;;;;29.50;94533.00;;;;7391003;19;20149;-74
2022/09/05 13:12:03;;;;;;;2.50;2.30;;;;;29.70;94527.00;;;;7391306;19;20155;-75
2022/09/05 13:15:10;;;;;;;4.18;2.38;;;;;29.60;94534.00;;;;7391535;19;20632;-73
2022/09/05 13:18:07;;;;;;;3.67;2.22;;;;;29.60;94530.00;;;;7394759;19;20480;-75
2022/09/05 13:20:45;;;;;;;3.10;2.80;;;;;29.70;94518.00;;;;7392043;19;20482;-75
2022/09/05 13:23:51;;;;;;;3.45;2.00;;;;;29.20;94525.00;;;;7393887;19;20532;-74
2022/09/05 13:26:32;;;;;;;3.65;2.22;;;;;29.40;94519.00;;;;7390482;19;20232;-74
2022/09/05 13:29:20;;;;;;;3.80;2.20;;;;;30.00;94521.00;;;;7394538;19;20125;-75
2022/09/05 13:31:52;;;;;;;3.33;2.13;;;;;29.70;94524.00;;;;7393465;19;20144;-73
2022/09/05 13:34:54;;;;;;;4.50;1.92;;;;;29.50;94523.00;;;;7392382;19;20239;-75
2022/09/05 13:37:47;;;;;;;2.30;2.10;;;;;29.10;94517.00;;;;7394309;19;20207;-73
2022/09/05 13:40:47;;;;;;;2.97;2.10;;;;;29.20;94519.00;;;;7391906;19;20646;-75
2022/09/05 13:43:28;;;;;;;3.03;2.17;;;;;29.10;94518.00;;;;7393332;19;20136;-73
2022/09/05 13:46:17;;;;;;;2.40;2.20;;;;;29.40;94505.00;;;;7395068;19;20133;-75
2022/09/05 13:48:45;;;;;;;5.18;2.33;;;;;29.30;94513.00;;;;7391788;19;20144;-73
2022/09/05 13:51:59;;;;;;;2.67;2.35;;;;;29.60;94519.00;;;;7391840;19;20149;-73
2022/09/05 13:54:35;;;;;;;3.67;2.22;;;;;30.00;94515.00;;;;7390886;19;20152;-73
2022/09/05 13:57:30;;;;;;;4.40;2.40;;;;;29.90;94513.00;;;;7391782;19;20615;-72
2022/09/05 14:00:12;;;;;;;2.45;2.25;;;;;30.30;94529.00;;;;7393726;19;20136;-72
2022/09/05 14:03:14;;;;;;;3.33;2.42;;;;;28.80;94526.00;;;;7392594;19;20145;-73
2022/09/05 14:06:10;;;;;;;2.70;2.50;;;;;27.80;94525.00;;;;7391236;19;20152;-73
2022/09/05 14:09:20;;;;;;;4.22;2.47;;;;;27.30;94525.00;;;;7391163;19;20137;-73
2022/09/05 14:12:26;;;;;;;2.78;2.40;;;;;26.70;94525.00;;;;7392340;19;20146;-75
2022/09/05 14:15:06;;;;;;;3.25;2.47;;;;;26.50;94524.00;;;;7391247;19;20173;-72
2022/09/05 14:17:52;;;;;;;4.57;2.30;;;;;26.40;94525.00;;;;7392905;19;20173;-72
2022/09/05 14:21:14;;;;;;;2.60;2.40;;;;;26.20;94526.00;;;;7389678;19;20488;-72
2022/09/05 14:23:53;;;;;;;2.47;2.22;;;;;26.20;94525.00;;;;7392771;19;20600;-73
2022/09/05 14:26:53;;;;;;;2.95;2.20;;;;;26.30;94531.00;;;;7389872;19;20152;-75
2022/09/05 14:29:44;;;;;;;2.50;2.30;;;;;26.60;94521.00;;;;7391259;19;20145;-72
2022/09/05 14:32:19;;;;;;;2.50;2.30;;;;;26.70;94523.00;;;;7387238;19;20147;-73
2022/09/05 14:35:11;;;;;;;2.95;2.25;;;;;27.20;94505.00;;;;7389857;19;20145;-75
2022/09/05 14:38:35;;;;;;;3.33;2.30;;;;;27.80;94503.00;;;;7393891;19;20129;-72
2022/09/05 14:41:33;;;;;;;4.22;2.60;;;;;28.10;94497.00;;;;7390277;19;20125;-72